createdAt,value
2022-11-28T00:00:41.485Z,24.42
2022-11-28T00:01:46.058Z,23.25
2022-11-28T00:02:48.436Z,24.40
2022-11-28T00:03:50.967Z,25.55
2022-11-28T00:04:53.695Z,20.63
2022-11-28T00:05:56.115Z,20.88
2022-11-28T00:06:59.137Z,22.13
2022-11-28T00:08:01.832Z,18.98
2022-11-28T00:09:04.302Z,21.75
2022-11-28T00:10:07.924Z,22.38
2022-11-28T00:11:11.999Z,22.10
2022-11-28T00:12:14.475Z,30.95
2022-11-28T00:13:16.765Z,21.83
2022-11-28T00:14:20.321Z,22.50
2022-11-28T00:15:22.594Z,23.65
2022-11-28T00:16:25.064Z,27.17
2022-11-28T00:17:27.387Z,23.65
2022-11-28T00:18:30.075Z,25.63
2022-11-28T00:19:32.652Z,26.13
2022-11-28T00:20:34.914Z,25.90
2022-11-28T00:21:37.376Z,25.08
2022-11-28T00:22:39.653Z,21.60
2022-11-28T00:23:43.654Z,26.27
2022-11-28T00:24:45.987Z,24.42
2022-11-28T00:25:57.445Z,21.83
2022-11-28T00:26:59.693Z,22.63
2022-11-28T00:28:02.004Z,21.60
2022-11-28T00:29:04.959Z,22.77
2022-11-28T00:30:07.794Z,24.98
2022-11-28T00:31:18.388Z,18.98
2022-11-28T00:32:20.731Z,21.52
2022-11-28T00:33:23.542Z,25.90
2022-11-28T00:34:25.835Z,25.02
2022-11-28T00:35:28.276Z,22.70
2022-11-28T00:36:31.181Z,22.77
2022-11-28T00:37:33.422Z,22.98
2022-11-28T00:38:35.946Z,25.50
2022-11-28T00:39:38.163Z,22.50
2022-11-28T00:40:40.428Z,18.85
2022-11-28T00:41:43.380Z,20.27
2022-11-28T00:42:45.614Z,22.10
2022-11-28T00:43:49.030Z,25.88
2022-11-28T00:44:51.285Z,18.42
2022-11-28T00:45:53.569Z,19.60
2022-11-28T00:46:55.841Z,21.92
2022-11-28T00:47:58.132Z,21.90
2022-11-28T00:49:00.405Z,25.58
2022-11-28T00:50:02.854Z,24.35
2022-11-28T00:51:23.160Z,18.50
2022-11-28T00:52:25.418Z,21.52
2022-11-28T00:53:27.640Z,20.98
2022-11-28T00:54:29.933Z,23.60
2022-11-28T00:55:32.221Z,26.38
2022-11-28T00:56:39.455Z,24.45
2022-11-28T00:57:41.938Z,20.10
2022-11-28T00:58:44.230Z,23.52
2022-11-28T00:59:46.494Z,24.38
2022-11-28T01:00:48.778Z,25.10
2022-11-28T01:01:51.313Z,22.52
2022-11-28T01:02:53.686Z,19.35
2022-11-28T01:03:58.310Z,25.15
2022-11-28T01:05:01.246Z,25.05
2022-11-28T01:06:03.997Z,27.83
2022-11-28T01:07:06.380Z,20.85
2022-11-28T01:08:09.123Z,22.55
2022-11-28T01:09:18.512Z,22.38
2022-11-28T01:10:21.088Z,24.58
2022-11-28T01:11:23.764Z,25.50
2022-11-28T01:12:25.996Z,19.55
2022-11-28T01:13:28.399Z,26.90
2022-11-28T01:14:30.677Z,26.13
2022-11-28T01:15:33.012Z,25.15
2022-11-28T01:16:35.816Z,23.02
2022-11-28T01:17:38.165Z,25.00
2022-11-28T01:18:40.447Z,21.20
2022-11-28T01:19:42.714Z,22.83
2022-11-28T01:20:45.124Z,22.30
2022-11-28T01:21:47.749Z,22.52
2022-11-28T01:22:49.999Z,21.00
2022-11-28T01:23:52.303Z,20.48
2022-11-28T01:24:54.583Z,24.40
2022-11-28T01:25:56.946Z,26.02
2022-11-28T01:26:59.342Z,21.63
2022-11-28T01:28:01.594Z,23.80
2022-11-28T01:29:03.918Z,21.98
2022-11-28T01:30:06.798Z,24.25
2022-11-28T01:31:11.184Z,23.67
2022-11-28T01:32:13.485Z,21.73
2022-11-28T01:33:15.764Z,22.70
2022-11-28T01:34:18.957Z,20.15
2022-11-28T01:35:21.196Z,25.63
2022-11-28T01:36:24.661Z,23.73
2022-11-28T01:37:30.103Z,21.27
2022-11-28T01:38:33.614Z,22.75
2022-11-28T01:39:36.886Z,23.40
2022-11-28T01:40:46.044Z,20.00
2022-11-28T01:41:48.390Z,21.45
2022-11-28T01:42:50.720Z,22.02
2022-11-28T01:44:08.269Z,17.35
2022-11-28T01:45:15.217Z,21.60
2022-11-28T01:46:17.468Z,21.50
2022-11-28T01:47:27.880Z,24.35
2022-11-28T01:48:36.809Z,21.02
2022-11-28T01:49:39.239Z,24.92
2022-11-28T01:50:46.090Z,22.63
2022-11-28T01:51:51.560Z,25.15
2022-11-28T01:52:57.741Z,22.55
2022-11-28T01:54:00.925Z,22.08
2022-11-28T01:55:07.840Z,22.50
2022-11-28T01:56:14.904Z,21.83
2022-11-28T01:57:24.301Z,23.20
2022-11-28T01:58:27.326Z,20.38
2022-11-28T01:59:37.220Z,22.75
2022-11-28T02:00:39.753Z,22.58
2022-11-28T02:01:44.258Z,23.08
2022-11-28T02:02:46.519Z,21.02
2022-11-28T02:03:50.416Z,20.50
2022-11-28T02:04:53.454Z,24.30
2022-11-28T02:05:57.102Z,23.10
2022-11-28T02:06:59.370Z,25.63
2022-11-28T02:08:02.138Z,22.27
2022-11-28T02:09:10.078Z,24.10
2022-11-28T02:10:17.312Z,24.92
2022-11-28T02:11:50.369Z,21.55
2022-11-28T02:13:23.003Z,20.50
2022-11-28T02:15:03.383Z,22.20
2022-11-28T02:16:31.166Z,24.95
2022-11-28T02:17:52.209Z,24.80
2022-11-28T02:19:24.541Z,22.23
2022-11-28T02:20:56.823Z,20.92
2022-11-28T02:22:14.107Z,22.38
2022-11-28T02:23:34.790Z,26.38
2022-11-28T02:25:15.886Z,26.13
2022-11-28T02:26:30.126Z,21.77
2022-11-28T02:28:05.505Z,21.25
2022-11-28T02:29:22.460Z,21.77
2022-11-28T02:30:36.632Z,25.70
2022-11-28T02:32:17.440Z,23.75
2022-11-28T02:33:22.253Z,22.27
2022-11-28T02:34:37.099Z,21.13
2022-11-28T02:36:07.337Z,22.13
2022-11-28T02:37:20.083Z,21.58
2022-11-28T02:38:35.650Z,26.70
2022-11-28T02:39:44.937Z,21.10
2022-11-28T02:41:06.546Z,18.70
2022-11-28T02:42:28.243Z,23.60
2022-11-28T02:43:39.881Z,21.05
2022-11-28T02:45:00.312Z,20.48
2022-11-28T02:46:26.455Z,21.17
2022-11-28T02:47:34.549Z,21.35
2022-11-28T02:48:54.371Z,21.13
2022-11-28T02:50:04.368Z,20.30
2022-11-28T02:51:23.756Z,18.80
2022-11-28T02:52:39.363Z,18.60
2022-11-28T02:53:45.778Z,20.80
2022-11-28T02:54:51.013Z,19.23
2022-11-28T02:55:53.628Z,18.88
2022-11-28T02:56:55.963Z,16.58
2022-11-28T02:57:58.251Z,23.45
2022-11-28T02:59:00.534Z,23.25
2022-11-28T03:00:03.497Z,19.70
2022-11-28T03:01:12.685Z,21.92
2022-11-28T03:02:30.822Z,17.27
2022-11-28T03:03:50.948Z,19.27
2022-11-28T03:04:53.138Z,20.20
2022-11-28T03:06:09.285Z,19.42
2022-11-28T03:07:22.685Z,22.02
2022-11-28T03:09:02.151Z,21.75
2022-11-28T03:10:21.199Z,18.30
2022-11-28T03:11:35.528Z,17.55
2022-11-28T03:12:55.976Z,19.48
2022-11-28T03:14:14.085Z,17.08
2022-11-28T03:15:22.534Z,21.63
2022-11-28T03:16:39.290Z,18.80
2022-11-28T03:18:09.918Z,19.08
2022-11-28T03:19:35.794Z,20.50
2022-11-28T03:20:57.641Z,17.75
2022-11-28T03:22:24.913Z,19.70
2022-11-28T03:23:38.540Z,16.55
2022-11-28T03:24:52.217Z,16.63
2022-11-28T03:25:57.244Z,21.70
2022-11-28T03:27:10.353Z,17.17
2022-11-28T03:28:21.858Z,19.67
2022-11-28T03:29:31.901Z,20.02
2022-11-28T03:30:45.827Z,20.23
2022-11-28T03:32:19.159Z,18.08
2022-11-28T03:33:25.411Z,18.92
2022-11-28T03:34:33.116Z,17.42
2022-11-28T03:35:42.293Z,20.77
2022-11-28T03:36:51.983Z,22.13
2022-11-28T03:38:35.722Z,21.77
2022-11-28T03:39:42.320Z,18.13
2022-11-28T03:40:49.754Z,19.70
2022-11-28T03:41:59.998Z,17.10
2022-11-28T03:43:06.517Z,21.30
2022-11-28T03:44:16.169Z,15.05
2022-11-28T03:45:23.808Z,19.15
2022-11-28T03:46:36.642Z,16.98
2022-11-28T03:47:43.999Z,18.80
2022-11-28T03:48:49.552Z,19.15
2022-11-28T03:49:56.569Z,20.30
2022-11-28T03:51:29.124Z,21.92
2022-11-28T03:52:40.760Z,18.48
2022-11-28T03:54:16.598Z,21.33
2022-11-28T03:55:50.968Z,17.38
2022-11-28T03:57:17.516Z,15.90
2022-11-28T03:58:28.168Z,18.35
2022-11-28T03:59:43.472Z,19.83
2022-11-28T04:00:59.902Z,17.35
2022-11-28T04:02:15.250Z,20.90
2022-11-28T04:03:40.959Z,16.48
2022-11-28T04:04:55.820Z,18.87
2022-11-28T04:06:15.884Z,17.65
2022-11-28T04:07:39.998Z,15.65
2022-11-28T04:08:52.836Z,20.95
2022-11-28T04:10:10.067Z,20.15
2022-11-28T04:11:25.309Z,21.15
2022-11-28T04:12:55.112Z,18.98
2022-11-28T04:14:03.453Z,15.02
2022-11-28T04:15:21.068Z,17.95
2022-11-28T04:16:35.625Z,17.15
2022-11-28T04:18:06.386Z,16.38
2022-11-28T04:19:16.317Z,17.50
2022-11-28T04:20:41.977Z,15.30
2022-11-28T04:22:07.292Z,19.92
2022-11-28T04:23:14.622Z,19.67
2022-11-28T04:24:34.793Z,19.73
2022-11-28T04:25:40.290Z,19.70
2022-11-28T04:26:48.452Z,19.38
2022-11-28T04:27:57.798Z,16.02
2022-11-28T04:29:04.110Z,16.38
2022-11-28T04:30:09.307Z,15.77
2022-11-28T04:31:12.870Z,20.42
2022-11-28T04:32:19.221Z,18.83
2022-11-28T04:33:25.398Z,16.08
2022-11-28T04:34:29.710Z,19.00
2022-11-28T04:35:36.834Z,20.30
2022-11-28T04:36:41.145Z,17.65
2022-11-28T04:37:45.264Z,18.17
2022-11-28T04:38:56.147Z,19.23
2022-11-28T04:40:00.691Z,18.80
2022-11-28T04:41:12.565Z,22.60
2022-11-28T04:42:20.111Z,17.38
2022-11-28T04:43:58.415Z,18.10
2022-11-28T04:45:09.565Z,18.55
2022-11-28T04:46:17.733Z,21.13
2022-11-28T04:47:20.094Z,16.95
2022-11-28T04:48:22.943Z,18.85
2022-11-28T04:49:27.419Z,17.52
2022-11-28T04:50:37.881Z,17.80
2022-11-28T04:51:50.835Z,17.60
2022-11-28T04:52:58.616Z,17.48
2022-11-28T04:54:11.777Z,17.55
2022-11-28T04:55:28.945Z,17.38
2022-11-28T04:56:38.361Z,21.38
2022-11-28T04:57:52.863Z,17.98
2022-11-28T04:58:59.620Z,16.48
2022-11-28T05:00:07.634Z,21.40
2022-11-28T05:01:14.652Z,20.35
2022-11-28T05:02:18.757Z,21.50
2022-11-28T05:03:21.839Z,18.45
2022-11-28T05:04:24.598Z,17.85
2022-11-28T05:05:28.605Z,21.15
2022-11-28T05:06:34.139Z,16.95
2022-11-28T05:07:36.468Z,19.00
2022-11-28T05:08:38.789Z,19.25
2022-11-28T05:09:41.059Z,17.40
2022-11-28T05:10:43.444Z,17.20
2022-11-28T05:11:45.733Z,17.65
2022-11-28T05:12:48.080Z,15.95
2022-11-28T05:13:50.299Z,18.58
2022-11-28T05:14:52.665Z,14.90
2022-11-28T05:15:54.981Z,17.83
2022-11-28T05:16:57.248Z,19.98
2022-11-28T05:17:59.835Z,15.90
2022-11-28T05:19:02.149Z,17.88
2022-11-28T05:20:06.517Z,17.20
2022-11-28T05:21:09.089Z,17.92
2022-11-28T05:22:11.325Z,16.92
2022-11-28T05:23:13.706Z,17.10
2022-11-28T05:24:15.943Z,14.45
2022-11-28T05:25:18.164Z,19.10
2022-11-28T05:26:21.460Z,19.27
2022-11-28T05:27:23.696Z,17.27
2022-11-28T05:28:25.991Z,19.65
2022-11-28T05:29:28.587Z,19.15
2022-11-28T05:30:30.811Z,17.63
2022-11-28T05:31:33.379Z,16.17
2022-11-28T05:32:36.558Z,21.80
2022-11-28T05:33:39.243Z,17.85
2022-11-28T05:34:41.701Z,21.80
2022-11-28T05:35:44.175Z,17.75
2022-11-28T05:36:46.951Z,19.85
2022-11-28T05:37:49.246Z,16.10
2022-11-28T05:38:51.543Z,16.90
2022-11-28T05:39:54.188Z,17.00
2022-11-28T05:40:56.414Z,21.67
2022-11-28T05:41:59.295Z,17.92
2022-11-28T05:43:01.563Z,17.27
2022-11-28T05:44:04.302Z,21.40
2022-11-28T05:45:07.246Z,17.83
2022-11-28T05:46:09.640Z,17.98
2022-11-28T05:47:11.883Z,18.10
2022-11-28T05:48:14.163Z,16.55
2022-11-28T05:49:16.490Z,17.85
2022-11-28T05:50:18.771Z,17.63
2022-11-28T05:51:21.001Z,17.88
2022-11-28T05:52:23.388Z,19.60
2022-11-28T05:53:26.023Z,21.75
2022-11-28T05:54:28.407Z,21.25
2022-11-28T05:55:30.713Z,18.00
2022-11-28T05:56:34.365Z,17.38
2022-11-28T05:57:39.219Z,17.63
2022-11-28T05:58:42.243Z,22.23
2022-11-28T05:59:44.853Z,20.15
2022-11-28T06:00:47.480Z,21.50
2022-11-28T06:01:49.830Z,18.15
2022-11-28T06:02:54.942Z,22.25
2022-11-28T06:04:01.272Z,18.75
2022-11-28T06:05:16.496Z,18.02
2022-11-28T06:06:28.637Z,17.17
2022-11-28T06:07:30.980Z,21.10
2022-11-28T06:08:33.247Z,21.27
2022-11-28T06:09:35.542Z,19.38
2022-11-28T06:10:37.808Z,21.02
2022-11-28T06:11:40.055Z,23.10
2022-11-28T06:12:42.297Z,19.52
2022-11-28T06:13:46.238Z,21.50
2022-11-28T06:14:48.573Z,21.45
2022-11-28T06:15:50.945Z,17.90
2022-11-28T06:16:53.307Z,20.55
2022-11-28T06:17:56.098Z,21.85
2022-11-28T06:19:00.690Z,18.92
2022-11-28T06:20:03.416Z,24.15
2022-11-28T06:21:07.783Z,20.45
2022-11-28T06:22:10.364Z,21.92
2022-11-28T06:23:12.620Z,20.77
2022-11-28T06:24:14.971Z,20.98
2022-11-28T06:25:17.267Z,20.42
2022-11-28T06:26:22.947Z,21.58
2022-11-28T06:27:25.292Z,18.60
2022-11-28T06:28:27.518Z,18.73
2022-11-28T06:29:29.764Z,21.95
2022-11-28T06:30:32.036Z,19.55
2022-11-28T06:31:34.340Z,21.63
2022-11-28T06:32:36.673Z,20.55
2022-11-28T06:33:38.955Z,21.08
2022-11-28T06:34:41.270Z,19.88
2022-11-28T06:35:43.514Z,18.67
2022-11-28T06:36:45.935Z,21.08
2022-11-28T06:37:48.214Z,19.77
2022-11-28T06:38:50.519Z,16.05
2022-11-28T06:39:53.031Z,21.27
2022-11-28T06:41:01.509Z,19.45
2022-11-28T06:42:03.957Z,23.42
2022-11-28T06:43:06.532Z,19.70
2022-11-28T06:44:12.541Z,22.50
2022-11-28T06:45:15.127Z,21.73
2022-11-28T06:46:20.504Z,22.20
2022-11-28T06:47:22.901Z,17.77
2022-11-28T06:48:25.397Z,20.33
2022-11-28T06:49:27.810Z,19.63
2022-11-28T06:50:30.326Z,21.40
2022-11-28T06:51:33.285Z,19.20
2022-11-28T06:52:35.871Z,19.75
2022-11-28T06:53:38.298Z,23.42
2022-11-28T06:54:40.525Z,19.27
2022-11-28T06:55:43.120Z,22.92
2022-11-28T06:56:45.374Z,25.05
2022-11-28T06:57:47.578Z,21.65
2022-11-28T06:58:57.675Z,24.40
2022-11-28T07:00:01.431Z,18.33
2022-11-28T07:01:18.226Z,22.95
2022-11-28T07:02:20.571Z,28.45
2022-11-28T07:03:23.042Z,23.88
2022-11-28T07:04:25.275Z,23.40
2022-11-28T07:05:31.201Z,21.55
2022-11-28T07:06:34.413Z,24.02
2022-11-28T07:07:50.207Z,19.70
2022-11-28T07:08:57.840Z,23.48
2022-11-28T07:10:00.214Z,19.42
2022-11-28T07:11:14.027Z,20.58
2022-11-28T07:12:16.353Z,22.45
2022-11-28T07:13:18.628Z,23.10
2022-11-28T07:14:21.318Z,20.98
2022-11-28T07:15:24.894Z,21.48
2022-11-28T07:16:30.030Z,23.67
2022-11-28T07:17:32.458Z,20.17
2022-11-28T07:18:34.961Z,24.77
2022-11-28T07:19:37.541Z,25.58
2022-11-28T07:20:39.842Z,20.95
2022-11-28T07:21:42.552Z,19.75
2022-11-28T07:22:46.981Z,26.40
2022-11-28T07:23:49.720Z,22.42
2022-11-28T07:24:52.342Z,25.73
2022-11-28T07:26:02.424Z,22.20
2022-11-28T07:27:04.765Z,24.65
2022-11-28T07:28:07.564Z,23.70
2022-11-28T07:29:15.007Z,22.83
2022-11-28T07:30:17.349Z,23.70
2022-11-28T07:31:32.425Z,22.02
2022-11-28T07:32:34.933Z,22.40
2022-11-28T07:33:41.839Z,22.13
2022-11-28T07:34:49.880Z,22.45
2022-11-28T07:35:52.465Z,22.90
2022-11-28T07:36:54.703Z,22.52
2022-11-28T07:37:57.003Z,22.80
2022-11-28T07:39:01.287Z,22.90
2022-11-28T07:40:04.530Z,25.13
2022-11-28T07:41:09.175Z,28.48
2022-11-28T07:42:14.849Z,22.75
2022-11-28T07:43:18.580Z,21.13
2022-11-28T07:44:20.825Z,20.92
2022-11-28T07:45:32.858Z,24.15
2022-11-28T07:46:45.702Z,20.35
2022-11-28T07:47:48.009Z,21.05
2022-11-28T07:48:50.300Z,21.00
2022-11-28T07:49:52.828Z,23.75
2022-11-28T07:50:55.110Z,19.73
2022-11-28T07:51:58.700Z,24.55
2022-11-28T07:53:06.879Z,22.98
2022-11-28T07:54:09.537Z,19.48
2022-11-28T07:55:12.090Z,23.27
2022-11-28T07:56:18.330Z,22.23
2022-11-28T07:57:20.667Z,21.95
2022-11-28T07:58:23.405Z,18.92
2022-11-28T07:59:25.606Z,20.20
2022-11-28T08:00:28.004Z,21.15
2022-11-28T08:01:33.492Z,23.60
2022-11-28T08:02:38.843Z,22.23
2022-11-28T08:03:41.545Z,18.73
2022-11-28T08:04:49.430Z,21.92
2022-11-28T08:05:52.754Z,19.27
2022-11-28T08:06:57.341Z,21.83
2022-11-28T08:08:00.425Z,22.13
2022-11-28T08:09:07.039Z,22.15
2022-11-28T08:10:09.648Z,20.40
2022-11-28T08:11:12.116Z,20.25
2022-11-28T08:12:14.436Z,19.73
2022-11-28T08:13:16.704Z,19.35
2022-11-28T08:14:19.958Z,18.55
2022-11-28T08:15:22.180Z,21.98
2022-11-28T08:16:26.867Z,19.33
2022-11-28T08:17:29.420Z,21.23
2022-11-28T08:18:31.768Z,18.27
2022-11-28T08:19:35.600Z,22.45
2022-11-28T08:20:37.940Z,23.55
2022-11-28T08:21:40.208Z,18.55
2022-11-28T08:22:42.613Z,19.52
2022-11-28T08:23:47.676Z,22.38
2022-11-28T08:24:49.944Z,19.10
2022-11-28T08:25:52.161Z,21.08
2022-11-28T08:26:54.419Z,19.42
2022-11-28T08:27:56.749Z,21.35
2022-11-28T08:29:00.382Z,21.15
2022-11-28T08:30:02.628Z,17.83
2022-11-28T08:31:19.186Z,19.83
2022-11-28T08:32:21.506Z,17.88
2022-11-28T08:33:24.666Z,19.92
2022-11-28T08:34:26.916Z,17.13
2022-11-28T08:35:29.251Z,18.85
2022-11-28T08:36:32.422Z,20.45
2022-11-28T08:37:34.687Z,20.60
2022-11-28T08:38:37.619Z,20.85
2022-11-28T08:39:40.098Z,23.35
2022-11-28T08:40:42.514Z,20.35
2022-11-28T08:41:45.365Z,19.70
2022-11-28T08:42:48.401Z,20.48
2022-11-28T08:43:51.042Z,16.08
2022-11-28T08:44:53.263Z,16.13
2022-11-28T08:45:55.666Z,20.42
2022-11-28T08:46:58.002Z,17.55
2022-11-28T08:48:00.398Z,21.42
2022-11-28T08:49:04.580Z,19.13
2022-11-28T08:50:08.394Z,15.82
2022-11-28T08:51:19.362Z,19.25
2022-11-28T08:52:22.198Z,19.73
2022-11-28T08:53:24.522Z,18.77
2022-11-28T08:54:26.736Z,19.27
2022-11-28T08:55:32.356Z,18.35
2022-11-28T08:56:35.696Z,15.48
2022-11-28T08:57:37.941Z,18.08
2022-11-28T08:58:40.242Z,17.27
2022-11-28T08:59:42.940Z,18.42
2022-11-28T09:00:45.745Z,21.20
2022-11-28T09:01:48.270Z,20.77
2022-11-28T09:02:50.591Z,18.85
2022-11-28T09:03:54.702Z,20.92
2022-11-28T09:04:57.548Z,15.98
2022-11-28T09:06:04.163Z,15.25
2022-11-28T09:07:06.439Z,17.15
2022-11-28T09:08:11.766Z,18.10
2022-11-28T09:09:14.271Z,16.20
2022-11-28T09:10:16.808Z,19.85
2022-11-28T09:11:21.500Z,18.63
2022-11-28T09:12:23.742Z,17.70
2022-11-28T09:13:26.043Z,17.42
2022-11-28T09:14:28.586Z,16.70
2022-11-28T09:15:31.173Z,18.30
2022-11-28T09:16:33.521Z,15.57
2022-11-28T09:17:35.842Z,17.55
2022-11-28T09:18:38.487Z,18.08
2022-11-28T09:19:41.032Z,20.88
2022-11-28T09:20:44.458Z,17.98
2022-11-28T09:21:46.708Z,19.92
2022-11-28T09:22:49.416Z,17.63
2022-11-28T09:23:54.402Z,17.35
2022-11-28T09:24:56.679Z,16.52
2022-11-28T09:25:58.927Z,17.23
2022-11-28T09:27:02.401Z,17.80
2022-11-28T09:28:05.399Z,17.55
2022-11-28T09:29:07.707Z,16.23
2022-11-28T09:30:10.668Z,20.55
2022-11-28T09:31:14.449Z,18.42
2022-11-28T09:32:18.405Z,18.15
2022-11-28T09:33:21.381Z,18.10
2022-11-28T09:34:23.616Z,19.17
2022-11-28T09:35:25.862Z,20.42
2022-11-28T09:36:28.663Z,19.98
2022-11-28T09:37:31.136Z,17.08
2022-11-28T09:38:34.235Z,18.40
2022-11-28T09:39:50.626Z,20.10
2022-11-28T09:41:02.621Z,18.38
2022-11-28T09:42:24.496Z,19.95
2022-11-28T09:43:43.928Z,19.90
2022-11-28T09:44:57.379Z,16.90
2022-11-28T09:46:04.788Z,16.20
2022-11-28T09:47:19.828Z,19.15
2022-11-28T09:48:41.701Z,17.77
2022-11-28T09:49:52.458Z,18.92
2022-11-28T09:50:59.624Z,18.05
2022-11-28T09:52:07.827Z,16.60
2022-11-28T09:53:30.736Z,19.85
2022-11-28T09:54:44.495Z,19.13
2022-11-28T09:55:52.499Z,22.40
2022-11-28T09:56:56.687Z,17.42
2022-11-28T09:58:01.419Z,16.02
2022-11-28T09:59:05.669Z,15.32
2022-11-28T10:00:18.767Z,13.70
2022-11-28T10:01:48.330Z,13.43
2022-11-28T10:03:09.909Z,13.27
2022-11-28T10:04:47.423Z,13.20
2022-11-28T10:06:18.023Z,15.18
2022-11-28T10:07:54.660Z,16.83
2022-11-28T10:09:30.354Z,17.42
2022-11-28T10:10:55.665Z,17.23
2022-11-28T10:12:03.428Z,17.20
2022-11-28T10:13:41.195Z,16.88
2022-11-28T10:14:58.283Z,17.35
2022-11-28T10:16:14.121Z,18.05
2022-11-28T10:17:24.895Z,16.63
2022-11-28T10:18:50.616Z,18.38
2022-11-28T10:20:18.418Z,19.98
2022-11-28T10:21:41.673Z,19.58
2022-11-28T10:22:50.543Z,20.73
2022-11-28T10:23:58.127Z,17.77
2022-11-28T10:25:11.469Z,20.52
2022-11-28T10:26:37.806Z,18.20
2022-11-28T10:27:41.324Z,18.15
2022-11-28T10:28:48.520Z,18.08
2022-11-28T10:29:58.445Z,16.25
2022-11-28T10:31:21.660Z,20.25
2022-11-28T10:32:34.617Z,17.77
2022-11-28T10:33:56.708Z,17.08
2022-11-28T10:35:06.688Z,18.50
2022-11-28T10:36:18.619Z,15.93
2022-11-28T10:37:26.085Z,18.15
2022-11-28T10:38:31.595Z,17.38
2022-11-28T10:39:37.343Z,19.35
2022-11-28T10:40:52.221Z,18.13
2022-11-28T10:42:13.892Z,19.02
2022-11-28T10:43:28.076Z,17.38
2022-11-28T10:44:40.551Z,17.73
2022-11-28T10:46:16.194Z,16.73
2022-11-28T10:47:36.736Z,19.80
2022-11-28T10:49:07.300Z,19.23
2022-11-28T10:50:32.276Z,16.98
2022-11-28T10:51:57.253Z,15.43
2022-11-28T10:53:03.422Z,18.23
2022-11-28T10:54:29.512Z,17.55
2022-11-28T10:55:46.485Z,15.50
2022-11-28T10:57:09.216Z,17.83
2022-11-28T10:58:28.192Z,20.08
2022-11-28T10:59:42.568Z,17.48
2022-11-28T11:00:49.073Z,18.63
2022-11-28T11:01:53.265Z,17.08
2022-11-28T11:03:00.763Z,19.27
2022-11-28T11:04:03.433Z,17.20
2022-11-28T11:05:07.125Z,16.20
2022-11-28T11:06:09.957Z,17.45
2022-11-28T11:07:29.934Z,17.88
2022-11-28T11:08:40.937Z,14.57
2022-11-28T11:09:44.105Z,14.82
2022-11-28T11:10:57.944Z,16.23
2022-11-28T11:12:03.282Z,15.02
2022-11-28T11:13:20.765Z,15.52
2022-11-28T11:14:39.901Z,18.05
2022-11-28T11:15:42.494Z,16.90
2022-11-28T11:16:56.868Z,16.55
2022-11-28T11:18:19.579Z,16.17
2022-11-28T11:19:27.666Z,15.65
2022-11-28T11:20:34.819Z,14.88
2022-11-28T11:21:37.026Z,16.58
2022-11-28T11:22:39.266Z,19.17
2022-11-28T11:23:42.480Z,16.63
2022-11-28T11:25:04.917Z,16.40
2022-11-28T11:26:11.515Z,15.75
2022-11-28T11:27:21.193Z,17.17
2022-11-28T11:28:32.151Z,16.80
2022-11-28T11:29:38.056Z,16.70
2022-11-28T11:30:42.753Z,18.25
2022-11-28T11:31:52.578Z,17.33
2022-11-28T11:32:57.469Z,14.77
2022-11-28T11:34:19.711Z,15.27
2022-11-28T11:35:35.810Z,18.48
2022-11-28T11:36:38.475Z,18.58
2022-11-28T11:37:40.750Z,16.23
2022-11-28T11:38:43.261Z,18.88
2022-11-28T11:39:50.947Z,16.70
2022-11-28T11:40:53.543Z,18.70
2022-11-28T11:42:01.689Z,17.70
2022-11-28T11:43:04.106Z,16.67
2022-11-28T11:44:15.036Z,18.40
2022-11-28T11:45:34.478Z,16.13
2022-11-28T11:46:56.062Z,15.25
2022-11-28T11:47:58.418Z,16.50
2022-11-28T11:49:00.661Z,17.80
2022-11-28T11:50:05.400Z,16.70
2022-11-28T11:51:24.471Z,13.40
2022-11-28T11:52:27.704Z,15.60
2022-11-28T11:53:29.985Z,17.52
2022-11-28T11:54:32.821Z,16.45
2022-11-28T11:55:51.105Z,14.57
2022-11-28T11:57:11.221Z,14.40
2022-11-28T11:58:27.368Z,18.73
2022-11-28T11:59:57.118Z,18.23
2022-11-28T12:01:01.374Z,17.02
2022-11-28T12:02:15.600Z,15.90
2022-11-28T12:03:36.812Z,18.42
2022-11-28T12:04:49.040Z,15.07
2022-11-28T12:06:14.578Z,13.88
2022-11-28T12:07:37.850Z,14.82
2022-11-28T12:08:55.526Z,13.45
2022-11-28T12:10:04.114Z,12.30
2022-11-28T12:11:29.249Z,15.88
2022-11-28T12:12:37.177Z,14.95
2022-11-28T12:13:39.625Z,15.38
2022-11-28T12:14:42.842Z,14.65
2022-11-28T12:15:51.461Z,16.40
2022-11-28T12:17:40.473Z,14.90
2022-11-28T12:19:02.393Z,13.38
2022-11-28T12:20:29.894Z,15.40
2022-11-28T12:21:32.147Z,18.83
2022-11-28T12:23:18.529Z,16.08
2022-11-28T12:24:32.437Z,15.07
2022-11-28T12:26:12.011Z,15.93
2022-11-28T12:27:32.739Z,15.30
2022-11-28T12:29:22.389Z,14.45
2022-11-28T12:30:44.993Z,14.07
2022-11-28T12:32:05.166Z,15.70
2022-11-28T12:33:25.354Z,14.75
2022-11-28T12:35:05.133Z,13.88
2022-11-28T12:36:46.753Z,15.88
2022-11-28T12:38:11.344Z,15.88
2022-11-28T12:39:21.835Z,14.88
2022-11-28T12:41:03.607Z,13.77
2022-11-28T12:42:19.235Z,15.85
2022-11-28T12:43:36.487Z,17.90
2022-11-28T12:44:54.520Z,15.00
2022-11-28T12:46:09.902Z,14.40
2022-11-28T12:47:38.004Z,13.63
2022-11-28T12:49:03.810Z,16.48
2022-11-28T12:50:20.392Z,16.83
2022-11-28T12:51:44.226Z,14.82
2022-11-28T12:53:10.849Z,13.90
2022-11-28T12:54:46.824Z,15.45
2022-11-28T12:56:25.911Z,17.27
2022-11-28T12:57:44.850Z,16.75
2022-11-28T12:59:09.932Z,13.68
2022-11-28T13:00:20.735Z,17.42
2022-11-28T13:01:39.764Z,15.57
2022-11-28T13:02:56.217Z,13.65
2022-11-28T13:04:17.564Z,16.17
2022-11-28T13:05:35.679Z,15.15
2022-11-28T13:06:43.030Z,14.80
2022-11-28T13:07:48.153Z,13.27
2022-11-28T13:09:16.300Z,14.43
2022-11-28T13:10:21.848Z,18.60
2022-11-28T13:11:49.382Z,18.48
2022-11-28T13:13:09.998Z,17.45
2022-11-28T13:14:22.337Z,16.08
2022-11-28T13:15:44.759Z,16.42
2022-11-28T13:16:53.015Z,19.73
2022-11-28T13:17:59.540Z,17.25
2022-11-28T13:19:11.390Z,14.45
2022-11-28T13:20:33.017Z,16.63
2022-11-28T13:21:58.588Z,16.42
2022-11-28T13:23:13.843Z,17.02
2022-11-28T13:24:34.254Z,18.25
2022-11-28T13:25:59.085Z,17.60
2022-11-28T13:27:16.536Z,18.75
2022-11-28T13:28:56.896Z,18.00
2022-11-28T13:30:22.460Z,19.75
2022-11-28T13:31:28.054Z,17.15
2022-11-28T13:32:55.057Z,15.30
2022-11-28T13:33:57.823Z,18.70
2022-11-28T13:35:00.387Z,19.10
2022-11-28T13:36:04.150Z,16.58
2022-11-28T13:39:11.136Z,17.83
2022-11-28T13:40:24.921Z,18.13
2022-11-28T13:42:10.050Z,15.75
2022-11-28T13:43:23.003Z,20.70
2022-11-28T13:44:49.552Z,18.67
2022-11-28T13:45:52.756Z,16.95
2022-11-28T13:46:56.779Z,18.50
2022-11-28T13:48:00.929Z,20.15
2022-11-28T13:49:21.291Z,18.45
2022-11-28T13:50:30.064Z,19.55
2022-11-28T13:51:33.951Z,19.67
2022-11-28T13:52:42.720Z,19.13
2022-11-28T13:53:46.771Z,21.77
2022-11-28T13:54:53.903Z,18.63
2022-11-28T13:56:08.029Z,20.83
2022-11-28T13:57:38.486Z,21.98
2022-11-28T13:58:59.114Z,21.63
2022-11-28T14:00:22.567Z,23.95
2022-11-28T14:01:31.235Z,22.23
2022-11-28T14:02:41.862Z,20.02
2022-11-28T14:03:49.379Z,18.63
2022-11-28T14:04:53.697Z,19.55
2022-11-28T14:06:00.411Z,21.13
2022-11-28T14:07:06.645Z,19.63
2022-11-28T14:08:25.737Z,20.55
2022-11-28T14:09:44.795Z,19.90
2022-11-28T14:11:07.016Z,19.67
2022-11-28T14:12:21.872Z,19.23
2022-11-28T14:13:33.043Z,17.60
2022-11-28T14:14:53.615Z,18.75
2022-11-28T14:16:08.161Z,20.25
2022-11-28T14:17:52.833Z,18.23
2022-11-28T14:19:20.252Z,21.08
2022-11-28T14:20:25.185Z,16.92
2022-11-28T14:21:52.609Z,19.60
2022-11-28T14:23:13.140Z,19.23
2022-11-28T14:24:21.608Z,17.52
2022-11-28T14:25:46.899Z,18.40
2022-11-28T14:26:59.820Z,18.00
2022-11-28T14:28:05.535Z,18.02
2022-11-28T14:29:24.780Z,16.73
2022-11-28T14:30:33.329Z,17.42
2022-11-28T14:31:39.787Z,20.10
2022-11-28T14:32:43.722Z,20.40
2022-11-28T14:33:47.609Z,15.30
2022-11-28T14:34:50.064Z,22.92
2022-11-28T14:35:57.897Z,15.35
2022-11-28T14:37:27.384Z,15.57
2022-11-28T14:38:33.591Z,17.35
2022-11-28T14:39:36.298Z,18.42
2022-11-28T14:40:56.928Z,16.30
2022-11-28T14:42:05.227Z,17.50
2022-11-28T14:43:41.035Z,15.82
2022-11-28T14:44:53.420Z,15.77
2022-11-28T14:46:19.600Z,20.38
2022-11-28T14:47:27.875Z,15.63
2022-11-28T14:48:30.830Z,21.83
2022-11-28T14:49:34.167Z,17.02
2022-11-28T14:50:39.227Z,15.80
2022-11-28T14:51:47.398Z,14.15
2022-11-28T14:53:11.077Z,14.23
2022-11-28T14:54:30.163Z,14.52
2022-11-28T14:55:34.387Z,16.98
2022-11-28T14:56:40.411Z,17.45
2022-11-28T14:58:01.670Z,13.75